createdAt,value
2023-05-20T00:00:54.598Z,11.80
2023-05-20T00:03:40.539Z,11.80
2023-05-20T00:06:27.908Z,11.80
2023-05-20T00:09:13.559Z,11.80
2023-05-20T00:11:59.439Z,11.70
2023-05-20T00:14:45.290Z,11.70
2023-05-20T00:17:31.096Z,11.70
2023-05-20T00:20:17.725Z,11.70
2023-05-20T00:23:04.858Z,11.70
2023-05-20T00:25:50.847Z,11.70
2023-05-20T00:28:36.849Z,11.70
2023-05-20T00:31:22.935Z,11.70
2023-05-20T00:34:09.482Z,11.70
2023-05-20T00:36:55.530Z,11.60
2023-05-20T00:39:42.874Z,11.60
2023-05-20T00:42:29.333Z,11.60
2023-05-20T00:45:15.657Z,11.60
2023-05-20T00:48:02.444Z,11.60
2023-05-20T00:50:49.124Z,11.60
2023-05-20T00:53:36.410Z,11.50
2023-05-20T00:56:23.930Z,11.60
2023-05-20T00:59:09.881Z,11.50
2023-05-20T01:04:37.410Z,11.50
2023-05-20T01:07:23.248Z,11.50
2023-05-20T01:10:10.284Z,11.50
2023-05-20T01:13:01.987Z,11.50
2023-05-20T01:15:49.708Z,11.50
2023-05-20T01:18:37.251Z,11.50
2023-05-20T01:21:23.598Z,11.50
2023-05-20T01:24:10.599Z,11.50
2023-05-20T01:26:56.548Z,11.50
2023-05-20T01:29:43.401Z,11.50
2023-05-20T01:32:34.741Z,11.50
2023-05-20T01:35:22.820Z,11.50
2023-05-20T01:38:09.651Z,11.40
2023-05-20T01:40:59.373Z,11.40
2023-05-20T01:43:45.660Z,11.40
2023-05-20T01:46:33.828Z,11.40
2023-05-20T01:49:19.979Z,11.40
2023-05-20T01:52:06.435Z,11.40
2023-05-20T01:54:52.414Z,11.40
2023-05-20T01:57:39.582Z,11.30
2023-05-20T02:00:25.235Z,11.30
2023-05-20T02:03:11.159Z,11.30
2023-05-20T02:05:57.967Z,11.30
2023-05-20T02:08:43.937Z,11.30
2023-05-20T02:11:29.352Z,11.30
2023-05-20T02:14:16.575Z,11.30
2023-05-20T02:17:03.265Z,11.30
2023-05-20T02:19:49.207Z,11.20
2023-05-20T02:22:34.852Z,11.20
2023-05-20T02:25:22.259Z,11.20
2023-05-20T02:28:09.461Z,11.20
2023-05-20T02:30:56.541Z,11.20
2023-05-20T02:33:42.374Z,11.20
2023-05-20T02:36:27.843Z,11.20
2023-05-20T02:39:13.602Z,11.20
2023-05-20T02:41:59.366Z,11.20
2023-05-20T02:44:45.034Z,11.20
2023-05-20T02:47:32.456Z,11.20
2023-05-20T02:50:43.923Z,11.10
2023-05-20T02:53:29.566Z,11.20
2023-05-20T02:56:15.291Z,11.20
2023-05-20T02:59:01.534Z,11.10
2023-05-20T03:01:47.503Z,11.20
2023-05-20T03:04:34.839Z,11.20
2023-05-20T03:07:20.501Z,11.20
2023-05-20T03:10:08.502Z,11.20
2023-05-20T03:12:54.311Z,11.20
2023-05-20T03:15:40.530Z,11.20
2023-05-20T03:18:26.150Z,11.20
2023-05-20T03:21:13.497Z,11.20
2023-05-20T03:23:59.165Z,11.20
2023-05-20T03:26:44.992Z,11.20
2023-05-20T03:29:30.699Z,11.20
2023-05-20T03:32:16.245Z,11.30
2023-05-20T03:35:02.174Z,11.30
2023-05-20T03:37:49.204Z,11.30
2023-05-20T03:40:34.948Z,11.40
2023-05-20T03:43:20.677Z,11.40
2023-05-20T03:46:06.846Z,11.50
2023-05-20T03:48:54.506Z,11.50
2023-05-20T03:51:40.724Z,11.50
2023-05-20T03:54:31.609Z,11.60
2023-05-20T03:57:17.453Z,11.60
2023-05-20T04:00:03.838Z,11.70
2023-05-20T04:02:50.938Z,11.70
2023-05-20T04:05:37.892Z,11.80
2023-05-20T04:08:30.919Z,11.80
2023-05-20T04:11:18.012Z,11.90
2023-05-20T04:14:04.003Z,11.90
2023-05-20T04:16:50.035Z,12.00
2023-05-20T04:19:35.561Z,12.10
2023-05-20T04:22:21.512Z,12.20
2023-05-20T04:25:08.161Z,12.20
2023-05-20T04:27:55.245Z,12.30
2023-05-20T04:30:40.969Z,12.40
2023-05-20T04:33:27.194Z,12.50
2023-05-20T04:36:13.044Z,12.50
2023-05-20T04:38:59.436Z,12.50
2023-05-20T04:41:45.205Z,12.50
2023-05-20T04:44:32.227Z,12.50
2023-05-20T04:50:33.553Z,12.40
2023-05-20T04:53:19.536Z,12.50
2023-05-20T04:56:05.775Z,12.50
2023-05-20T04:58:51.330Z,12.50
2023-05-20T05:01:39.284Z,12.50
2023-05-20T05:04:24.991Z,12.50
2023-05-20T05:07:11.095Z,12.60
2023-05-20T05:09:57.203Z,12.60
2023-05-20T05:12:43.084Z,12.60
2023-05-20T05:15:28.982Z,12.70
2023-05-20T05:18:16.356Z,12.70
2023-05-20T05:21:04.563Z,12.80
2023-05-20T05:23:51.606Z,12.80
2023-05-20T05:26:37.276Z,12.90
2023-05-20T05:29:23.022Z,12.90
2023-05-20T05:32:08.957Z,13.00
2023-05-20T05:34:55.979Z,13.10
2023-05-20T05:37:42.058Z,13.20
2023-05-20T05:40:28.289Z,13.30
2023-05-20T05:43:16.701Z,13.40
2023-05-20T05:46:03.960Z,13.50
2023-05-20T05:48:49.719Z,13.50
2023-05-20T05:51:38.972Z,13.60
2023-05-20T05:54:25.789Z,13.60
2023-05-20T05:57:12.753Z,13.70
2023-05-20T05:59:58.969Z,13.80
2023-05-20T06:02:46.591Z,13.80
2023-05-20T06:05:45.749Z,13.90
2023-05-20T06:08:35.149Z,14.00
2023-05-20T06:11:20.779Z,14.10
2023-05-20T06:14:06.524Z,14.20
2023-05-20T06:16:52.530Z,14.30
2023-05-20T06:19:38.560Z,14.50
2023-05-20T06:22:25.439Z,14.60
2023-05-20T06:25:14.433Z,14.70
2023-05-20T06:28:00.637Z,14.90
2023-05-20T06:30:46.419Z,15.30
2023-05-20T06:33:32.290Z,15.80
2023-05-20T06:36:21.933Z,16.30
2023-05-20T06:39:07.671Z,16.70
2023-05-20T06:41:55.099Z,17.00
2023-05-20T06:44:48.374Z,17.40
2023-05-20T06:50:50.377Z,18.00
2023-05-20T06:53:36.441Z,18.40
2023-05-20T06:56:22.313Z,18.70
2023-05-20T06:59:09.746Z,19.00
2023-05-20T07:01:58.185Z,19.30
2023-05-20T07:04:43.727Z,19.70
2023-05-20T07:07:29.333Z,20.00
2023-05-20T07:10:15.567Z,20.00
2023-05-20T07:13:01.789Z,20.40
2023-05-20T07:15:48.893Z,21.00
2023-05-20T07:18:35.253Z,21.50
2023-05-20T07:21:21.462Z,21.10
2023-05-20T07:24:29.761Z,20.70
2023-05-20T07:27:15.873Z,20.20
2023-05-20T07:30:01.604Z,20.20
2023-05-20T07:32:49.975Z,20.90
2023-05-20T07:35:35.663Z,20.60
2023-05-20T07:38:21.785Z,20.80
2023-05-20T07:41:14.011Z,21.30
2023-05-20T07:44:01.858Z,21.70
2023-05-20T07:46:48.946Z,22.10
2023-05-20T07:49:35.984Z,22.50
2023-05-20T07:52:22.908Z,23.00
2023-05-20T07:55:08.898Z,23.50
2023-05-20T07:57:54.740Z,23.90
2023-05-20T08:00:41.291Z,24.40
2023-05-20T08:03:28.086Z,24.90
2023-05-20T08:06:29.392Z,24.80
2023-05-20T08:09:16.604Z,24.70
2023-05-20T08:12:07.625Z,24.60
2023-05-20T08:14:54.349Z,25.30
2023-05-20T08:17:41.774Z,24.50
2023-05-20T08:20:29.080Z,24.90
2023-05-20T08:23:17.196Z,24.30
2023-05-20T08:26:03.292Z,25.00
2023-05-20T08:28:50.362Z,24.90
2023-05-20T08:31:37.184Z,26.00
2023-05-20T08:34:23.336Z,24.70
2023-05-20T08:37:10.321Z,24.10
2023-05-20T08:39:57.674Z,23.40
2023-05-20T08:42:44.274Z,23.10
2023-05-20T08:45:33.906Z,23.50
2023-05-20T08:48:26.754Z,24.00
2023-05-20T08:51:16.279Z,24.90
2023-05-20T08:54:02.609Z,24.30
2023-05-20T08:56:50.172Z,24.90
2023-05-20T08:59:36.934Z,24.30
2023-05-20T09:02:22.970Z,25.20
2023-05-20T09:05:10.886Z,26.40
2023-05-20T09:08:06.042Z,26.80
2023-05-20T09:10:52.841Z,26.20
2023-05-20T09:13:39.867Z,25.90
2023-05-20T09:16:26.054Z,25.90
2023-05-20T09:19:12.255Z,26.50
2023-05-20T09:21:58.398Z,25.70
2023-05-20T09:24:43.969Z,26.10
2023-05-20T09:27:29.985Z,27.20
2023-05-20T09:30:19.214Z,26.10
2023-05-20T09:33:05.935Z,26.30
2023-05-20T09:35:51.973Z,25.60
2023-05-20T09:38:39.690Z,25.10
2023-05-20T09:41:33.581Z,24.70
2023-05-20T09:44:21.053Z,25.70
2023-05-20T09:47:09.757Z,26.30
2023-05-20T09:49:56.395Z,26.90
2023-05-20T09:52:44.400Z,26.00
2023-05-20T09:55:30.963Z,26.30
2023-05-20T09:58:19.929Z,26.40
2023-05-20T10:01:06.450Z,25.60
2023-05-20T10:03:53.896Z,25.20
2023-05-20T10:07:20.909Z,25.70
2023-05-20T10:10:28.333Z,26.10
2023-05-20T10:13:47.937Z,25.80
2023-05-20T10:16:47.992Z,25.70
2023-05-20T10:19:35.990Z,25.60
2023-05-20T10:22:28.553Z,25.20
2023-05-20T10:25:28.722Z,25.10
2023-05-20T10:28:14.490Z,25.00
2023-05-20T10:31:00.838Z,24.70
2023-05-20T10:33:48.005Z,24.80
2023-05-20T10:36:35.175Z,25.10
2023-05-20T10:39:27.817Z,25.00
2023-05-20T10:42:13.409Z,24.60
2023-05-20T10:44:59.259Z,24.10
2023-05-20T10:47:55.592Z,23.70
2023-05-20T10:50:42.679Z,23.70
2023-05-20T10:53:38.506Z,23.80
2023-05-20T10:56:26.990Z,24.40
2023-05-20T10:59:13.498Z,24.70
2023-05-20T11:02:01.206Z,24.80
2023-05-20T11:04:47.303Z,24.60
2023-05-20T11:07:32.995Z,24.60
2023-05-20T11:10:22.490Z,24.60
2023-05-20T11:13:08.498Z,24.50
2023-05-20T11:15:54.939Z,24.40
2023-05-20T11:18:40.464Z,24.50
2023-05-20T11:21:26.088Z,24.60
2023-05-20T11:24:12.072Z,24.40
2023-05-20T11:27:01.491Z,24.40
2023-05-20T11:29:50.278Z,24.30
2023-05-20T11:32:36.511Z,24.30
2023-05-20T11:35:23.162Z,24.30
2023-05-20T11:38:10.165Z,24.20
2023-05-20T11:40:56.818Z,24.20
2023-05-20T11:43:44.174Z,24.30
2023-05-20T11:46:29.775Z,24.60
2023-05-20T11:49:17.238Z,25.10
2023-05-20T11:52:03.897Z,25.10
2023-05-20T11:54:53.473Z,25.10
2023-05-20T11:57:39.960Z,25.00
2023-05-20T12:00:31.169Z,24.80
2023-05-20T12:03:19.814Z,24.40
2023-05-20T12:06:12.757Z,24.10
2023-05-20T12:09:01.914Z,23.80
2023-05-20T12:11:47.569Z,23.50
2023-05-20T12:14:33.285Z,23.30
2023-05-20T12:17:20.170Z,23.10
2023-05-20T12:20:07.982Z,23.10
2023-05-20T12:22:54.157Z,23.30
2023-05-20T12:25:39.695Z,23.40
2023-05-20T12:28:25.352Z,23.10
2023-05-20T12:31:10.891Z,22.90
2023-05-20T12:33:57.744Z,22.70
2023-05-20T12:36:43.196Z,22.60
2023-05-20T12:39:28.598Z,22.50
2023-05-20T12:42:14.314Z,22.50
2023-05-20T12:44:59.954Z,22.70
2023-05-20T12:47:45.556Z,23.10
2023-05-20T12:50:32.412Z,23.10
2023-05-20T12:53:17.988Z,23.10
2023-05-20T12:56:06.072Z,23.30
2023-05-20T12:58:51.609Z,23.50
2023-05-20T13:01:37.177Z,23.60
2023-05-20T13:04:22.779Z,23.60
2023-05-20T13:07:12.219Z,23.50
2023-05-20T13:09:59.024Z,23.60
2023-05-20T13:12:45.349Z,23.70
2023-05-20T13:15:31.293Z,23.70
2023-05-20T13:18:17.388Z,23.80
2023-05-20T13:21:03.068Z,24.00
2023-05-20T13:23:49.934Z,24.00
2023-05-20T13:26:35.475Z,24.00
2023-05-20T13:29:21.056Z,24.10
2023-05-20T13:32:07.597Z,23.90
2023-05-20T13:34:53.026Z,23.80
2023-05-20T13:37:38.493Z,23.70
2023-05-20T13:40:25.559Z,23.60
2023-05-20T13:43:10.954Z,23.50
2023-05-20T13:45:56.855Z,23.40
2023-05-20T13:48:42.462Z,23.30
2023-05-20T13:51:28.114Z,23.30
2023-05-20T13:54:13.940Z,23.30
2023-05-20T13:57:01.175Z,23.40
2023-05-20T13:59:46.723Z,23.40
2023-05-20T14:02:33.239Z,23.20
2023-05-20T14:05:18.755Z,23.10
2023-05-20T14:08:05.280Z,22.80
2023-05-20T14:10:50.840Z,22.60
2023-05-20T14:13:37.800Z,22.40
2023-05-20T14:16:23.567Z,22.30
2023-05-20T14:19:09.286Z,22.30
2023-05-20T14:21:54.883Z,22.40
2023-05-20T14:24:40.528Z,22.60
2023-05-20T14:27:25.926Z,23.20
2023-05-20T14:30:13.839Z,23.30
2023-05-20T14:32:59.808Z,23.60
2023-05-20T14:35:45.104Z,23.50
2023-05-20T14:38:31.407Z,23.30
2023-05-20T14:41:16.792Z,23.10
2023-05-20T14:44:02.647Z,23.10
2023-05-20T14:46:49.690Z,23.10
2023-05-20T14:49:35.172Z,23.20
2023-05-20T14:52:20.923Z,23.30
2023-05-20T14:55:07.040Z,23.50
2023-05-20T14:57:52.948Z,23.20
2023-05-20T15:00:39.297Z,23.00
2023-05-20T15:03:26.468Z,22.90
2023-05-20T15:06:12.341Z,22.90
2023-05-20T15:08:57.936Z,22.80
2023-05-20T15:11:43.402Z,22.70
2023-05-20T15:14:29.464Z,22.50
2023-05-20T15:17:14.995Z,22.40
2023-05-20T15:20:02.848Z,22.20
2023-05-20T15:22:48.394Z,22.10
2023-05-20T15:25:33.948Z,22.00
2023-05-20T15:28:19.889Z,21.90
2023-05-20T15:31:06.171Z,21.90
2023-05-20T15:33:52.042Z,21.90
2023-05-20T15:36:38.918Z,21.80
2023-05-20T15:39:24.548Z,21.80
2023-05-20T15:42:10.151Z,21.90
2023-05-20T15:44:55.973Z,21.90
2023-05-20T15:47:47.289Z,21.80
2023-05-20T15:50:35.366Z,21.70
2023-05-20T15:53:23.065Z,21.50
2023-05-20T15:56:11.960Z,21.50
2023-05-20T15:58:57.559Z,21.50
2023-05-20T16:01:43.196Z,21.40
2023-05-20T16:04:29.027Z,21.40
2023-05-20T16:07:14.655Z,21.40
2023-05-20T16:10:02.567Z,21.40
2023-05-20T16:12:50.614Z,21.50
2023-05-20T16:15:37.045Z,21.40
2023-05-20T16:18:23.424Z,21.40
2023-05-20T16:21:10.207Z,21.30
2023-05-20T16:23:56.252Z,21.20
2023-05-20T16:26:45.246Z,21.10
2023-05-20T16:29:31.013Z,21.10
2023-05-20T16:32:17.368Z,21.10
2023-05-20T16:35:03.130Z,21.10
2023-05-20T16:37:50.204Z,21.10
2023-05-20T16:40:36.171Z,20.90
2023-05-20T16:43:23.366Z,20.60
2023-05-20T16:46:10.293Z,20.50
2023-05-20T16:48:58.023Z,20.40
2023-05-20T16:51:43.741Z,20.30
2023-05-20T16:54:30.000Z,20.20
2023-05-20T16:57:16.164Z,20.10
2023-05-20T17:00:04.742Z,20.10
2023-05-20T17:02:51.257Z,20.00
2023-05-20T17:05:36.844Z,20.00
2023-05-20T17:08:22.628Z,20.00
2023-05-20T17:11:08.116Z,19.90
2023-05-20T17:13:54.130Z,19.90
2023-05-20T17:16:40.921Z,19.80
2023-05-20T17:19:26.888Z,19.90
2023-05-20T17:22:12.445Z,19.80
2023-05-20T17:24:57.929Z,19.70
2023-05-20T17:27:43.555Z,19.70
2023-05-20T17:30:29.563Z,19.60
2023-05-20T17:33:16.805Z,19.50
2023-05-20T17:36:02.740Z,19.30
2023-05-20T17:38:58.754Z,19.20
2023-05-20T17:41:44.821Z,19.10
2023-05-20T17:44:30.263Z,19.10
2023-05-20T17:50:27.180Z,19.00
2023-05-20T17:53:12.911Z,18.90
2023-05-20T17:55:59.041Z,18.80
2023-05-20T17:58:44.784Z,18.70
2023-05-20T18:01:31.987Z,18.60
2023-05-20T18:04:19.900Z,18.40
2023-05-20T18:07:07.567Z,18.10
2023-05-20T18:09:53.689Z,18.00
2023-05-20T18:12:39.233Z,17.80
2023-05-20T18:15:24.838Z,17.70
2023-05-20T18:18:10.413Z,17.60
2023-05-20T18:20:56.536Z,17.50
2023-05-20T18:23:45.293Z,17.30
2023-05-20T18:26:30.818Z,17.20
2023-05-20T18:32:26.156Z,17.00
2023-05-20T18:35:18.765Z,17.00
2023-05-20T18:38:07.076Z,16.90
2023-05-20T18:40:54.539Z,16.70
2023-05-20T18:43:40.338Z,16.60
2023-05-20T18:46:25.947Z,16.50
2023-05-20T18:49:11.487Z,16.50
2023-05-20T18:51:57.335Z,16.30
2023-05-20T18:54:44.235Z,16.20
2023-05-20T18:57:31.508Z,16.10
2023-05-20T19:00:18.210Z,16.00
2023-05-20T19:03:04.280Z,15.90
2023-05-20T19:05:50.249Z,15.80
2023-05-20T19:08:35.815Z,15.80
2023-05-20T19:11:21.585Z,15.70
2023-05-20T19:14:08.694Z,15.60
2023-05-20T19:16:54.635Z,15.60
2023-05-20T19:19:40.806Z,15.50
2023-05-20T19:22:26.750Z,15.40
2023-05-20T19:25:12.655Z,15.30
2023-05-20T19:27:58.686Z,15.30
2023-05-20T19:30:45.900Z,15.20
2023-05-20T19:33:31.736Z,15.10
2023-05-20T19:36:17.694Z,15.00
2023-05-20T19:39:05.036Z,15.00
2023-05-20T19:41:51.192Z,14.90
2023-05-20T19:44:36.789Z,14.80
2023-05-20T19:47:23.815Z,14.70
2023-05-20T19:50:35.433Z,14.60
2023-05-20T19:53:21.050Z,14.60
2023-05-20T19:56:06.910Z,14.50
2023-05-20T19:58:52.502Z,14.50
2023-05-20T20:01:38.158Z,14.50
2023-05-20T20:04:26.130Z,14.50
2023-05-20T20:07:12.276Z,14.50
2023-05-20T20:09:58.351Z,14.50
2023-05-20T20:12:43.864Z,14.50
2023-05-20T20:15:29.438Z,14.50
2023-05-20T20:18:15.482Z,14.50
2023-05-20T20:21:02.771Z,14.50
2023-05-20T20:23:48.912Z,14.50
2023-05-20T20:26:34.733Z,14.50
2023-05-20T20:29:21.499Z,14.50
2023-05-20T20:32:07.862Z,14.40
2023-05-20T20:34:53.859Z,14.40
2023-05-20T20:37:41.273Z,14.40
2023-05-20T20:40:27.305Z,14.40
2023-05-20T20:43:13.839Z,14.40
2023-05-20T20:45:59.483Z,14.40
2023-05-20T20:48:45.462Z,14.40
2023-05-20T20:51:31.843Z,14.40
2023-05-20T20:54:21.500Z,14.40
2023-05-20T20:57:07.173Z,14.40
2023-05-20T20:59:53.794Z,14.40
2023-05-20T21:02:40.428Z,14.40
2023-05-20T21:05:26.285Z,14.30
2023-05-20T21:08:11.980Z,14.30
2023-05-20T21:10:58.887Z,14.30
2023-05-20T21:13:44.750Z,14.30
2023-05-20T21:16:30.203Z,14.20
2023-05-20T21:19:16.052Z,14.20
2023-05-20T21:22:01.732Z,14.20
2023-05-20T21:24:47.516Z,14.20
2023-05-20T21:27:34.705Z,14.20
2023-05-20T21:30:20.376Z,14.20
2023-05-20T21:33:06.404Z,14.20
2023-05-20T21:35:52.534Z,14.20
2023-05-20T21:38:38.031Z,14.20
2023-05-20T21:41:23.496Z,14.20
2023-05-20T21:44:10.759Z,14.20
2023-05-20T21:46:56.801Z,14.20
2023-05-20T21:49:42.414Z,14.20
2023-05-20T21:52:28.398Z,14.20
2023-05-20T21:55:13.947Z,14.20
2023-05-20T21:57:59.747Z,14.20
2023-05-20T22:00:46.633Z,14.20
2023-05-20T22:03:32.440Z,14.20
2023-05-20T22:06:17.999Z,14.10
2023-05-20T22:09:03.828Z,14.10
2023-05-20T22:11:49.779Z,14.10
2023-05-20T22:14:35.911Z,14.10
2023-05-20T22:17:22.943Z,14.10
2023-05-20T22:20:10.817Z,14.10
2023-05-20T22:22:56.512Z,14.10
2023-05-20T22:25:42.245Z,14.10
2023-05-20T22:28:27.562Z,14.10
2023-05-20T22:31:13.549Z,14.10
2023-05-20T22:34:00.809Z,14.10
2023-05-20T22:36:46.234Z,14.00
2023-05-20T22:39:31.764Z,14.00
2023-05-20T22:42:17.331Z,14.00
2023-05-20T22:45:03.578Z,14.00
2023-05-20T22:47:51.337Z,13.90
2023-05-20T22:50:39.050Z,13.90
2023-05-20T22:53:25.043Z,13.80
2023-05-20T22:56:10.686Z,13.80
2023-05-20T22:58:56.520Z,13.80
2023-05-20T23:01:42.180Z,13.70
2023-05-20T23:04:28.349Z,13.70
2023-05-20T23:07:15.914Z,13.70
2023-05-20T23:10:01.727Z,13.70
2023-05-20T23:12:47.527Z,13.60
2023-05-20T23:15:32.961Z,13.60
2023-05-20T23:18:18.814Z,13.60
2023-05-20T23:21:04.716Z,13.60
2023-05-20T23:23:51.898Z,13.60
2023-05-20T23:26:37.956Z,13.60
2023-05-20T23:29:23.797Z,13.60
2023-05-20T23:32:09.404Z,13.60
2023-05-20T23:34:55.554Z,13.60
2023-05-20T23:37:41.717Z,13.60
2023-05-20T23:40:29.112Z,13.60
2023-05-20T23:43:15.076Z,13.50
2023-05-20T23:46:00.810Z,13.50
2023-05-20T23:48:46.912Z,13.50
2023-05-20T23:51:32.700Z,13.50
2023-05-20T23:54:18.099Z,13.50
2023-05-20T23:57:05.966Z,13.50
2023-05-20T23:59:52.465Z,13.40
